Time;durP1;ratioP1;P1;durP2;ratioP2;P2;SDS_P1;SDS_P2;PMS_P1;PMS_P2;Temp;Humidity;BMP_temperature;BMP_pressure;BME280_temperature;BME280_humidity;BME280_pressure;Samples;Min_cycle;Max_cycle;Signal;HPM_P1;HPM_P2
2024/01/30 00:02:08;;;;;;;6.25;4.20;;;;;;;28.48;30.30;102506.94;5080608;28;20064;-42
2024/01/30 00:04:33;;;;;;;5.63;3.97;;;;;;;28.73;30.02;102501.19;5082315;28;20523;-44
2024/01/30 00:06:58;;;;;;;5.18;3.55;;;;;;;28.93;29.70;102502.72;5080895;28;20492;-44
2024/01/30 00:09:24;;;;;;;4.93;3.80;;;;;;;29.11;29.49;102509.28;5085510;28;20058;-45
2024/01/30 00:11:49;;;;;;;4.78;3.90;;;;;;;29.23;29.35;102511.53;5075055;28;20020;-44
2024/01/30 00:14:15;;;;;;;5.20;4.00;;;;;;;29.19;29.41;102508.53;5075338;28;20127;-43
2024/01/30 00:16:40;;;;;;;6.80;3.90;;;;;;;28.88;29.87;102506.44;5060588;28;20451;-44
2024/01/30 00:19:05;;;;;;;4.53;3.65;;;;;;;28.80;29.67;102496.00;5060059;28;20022;-43
2024/01/30 00:21:31;;;;;;;5.50;4.00;;;;;;;28.77;30.07;102497.47;5050696;28;20038;-45
2024/01/30 00:23:56;;;;;;;7.68;4.05;;;;;;;28.66;30.10;102477.28;5059876;28;20089;-43
2024/01/30 00:26:21;;;;;;;6.03;4.07;;;;;;;28.53;30.03;102485.69;5079890;28;20218;-43
2024/01/30 00:28:47;;;;;;;4.10;3.60;;;;;;;28.41;30.21;102491.75;5077957;28;20036;-44
2024/01/30 00:31:12;;;;;;;7.78;4.35;;;;;;;28.28;30.48;102479.50;5057574;28;20048;-43
2024/01/30 00:33:41;;;;;;;7.00;4.05;;;;;;;28.17;30.56;102479.66;5065370;28;20065;-45
2024/01/30 00:36:07;;;;;;;6.78;3.78;;;;;;;28.10;30.37;102479.25;5057241;28;20021;-47
2024/01/30 00:38:33;;;;;;;5.63;4.03;;;;;;;28.04;30.60;102483.22;5061054;28;20036;-43
2024/01/30 00:40:58;;;;;;;4.45;3.58;;;;;;;28.07;30.53;102485.44;5056543;28;20131;-45
2024/01/30 00:43:27;;;;;;;6.10;4.00;;;;;;;28.08;30.63;102486.25;5075767;28;20044;-42
2024/01/30 00:45:52;;;;;;;4.85;3.67;;;;;;;28.09;30.57;102491.53;5079012;28;20320;-48
2024/01/30 00:48:18;;;;;;;4.30;3.65;;;;;;;28.00;30.67;102494.16;5067634;28;20469;-45
2024/01/30 00:50:43;;;;;;;6.25;4.00;;;;;;;28.06;30.61;102496.91;5080581;28;20031;-45
2024/01/30 00:53:08;;;;;;;5.88;4.05;;;;;;;28.03;30.65;102504.72;5082262;28;20536;-43
2024/01/30 00:55:35;;;;;;;4.47;3.70;;;;;;;27.92;30.52;102492.09;5078567;28;20067;-42
2024/01/30 00:58:00;;;;;;;6.85;3.60;;;;;;;27.81;30.87;102497.03;5080338;28;20028;-45
2024/01/30 01:00:28;;;;;;;4.75;3.53;;;;;;;27.74;30.78;102492.97;5078133;28;20035;-42
2024/01/30 01:02:55;;;;;;;4.40;3.60;;;;;;;27.64;31.13;102486.44;5074391;28;20491;-43
2024/01/30 01:05:20;;;;;;;5.88;3.97;;;;;;;27.61;31.06;102495.41;5069606;28;20034;-43
2024/01/30 01:07:47;;;;;;;4.50;3.60;;;;;;;27.64;30.89;102492.00;5065293;28;20525;-44
2024/01/30 01:10:13;;;;;;;5.38;3.40;;;;;;;27.73;30.91;102485.75;5076950;28;20583;-45
2024/01/30 01:12:39;;;;;;;5.43;3.55;;;;;;;27.56;31.17;102487.13;5079114;28;20028;-45
2024/01/30 01:15:05;;;;;;;5.13;3.70;;;;;;;27.57;31.09;102494.34;5075146;28;20440;-47
2024/01/30 01:17:31;;;;;;;5.03;3.60;;;;;;;27.56;31.17;102483.53;5081405;28;20108;-43
2024/01/30 01:19:57;;;;;;;5.80;3.85;;;;;;;27.53;31.21;102474.66;5073889;28;20052;-46
2024/01/30 01:22:22;;;;;;;4.43;3.47;;;;;;;27.52;31.22;102474.97;5072703;28;20209;-43
2024/01/30 01:24:48;;;;;;;4.65;3.50;;;;;;;27.50;31.21;102472.44;5082634;28;20374;-44
2024/01/30 01:27:13;;;;;;;4.28;3.45;;;;;;;27.57;31.26;102451.78;5075013;28;20500;-43
2024/01/30 01:29:39;;;;;;;4.38;3.97;;;;;;;27.53;31.24;102457.13;5060585;28;20134;-42
2024/01/30 01:32:04;;;;;;;6.43;3.58;;;;;;;27.50;31.21;102454.94;5076434;28;20405;-42
2024/01/30 01:34:30;;;;;;;5.45;3.92;;;;;;;27.56;31.08;102442.59;5069575;28;20032;-44
2024/01/30 01:36:55;;;;;;;4.75;3.67;;;;;;;27.51;31.28;102453.81;5076166;28;20712;-42
2024/01/30 01:39:23;;;;;;;5.53;3.97;;;;;;;27.50;31.18;102447.41;5088836;28;20027;-40
2024/01/30 01:41:49;;;;;;;4.85;3.80;;;;;;;27.51;31.37;102451.84;5079237;28;20025;-44
2024/01/30 01:44:14;;;;;;;3.97;3.47;;;;;;;27.44;31.18;102456.97;5078535;28;20032;-45
2024/01/30 01:46:39;;;;;;;7.57;3.45;;;;;;;27.38;31.50;102453.44;5068153;28;20078;-42
2024/01/30 01:49:05;;;;;;;3.85;3.42;;;;;;;27.39;31.35;102463.44;5070908;28;20036;-41
2024/01/30 01:51:33;;;;;;;5.20;3.42;;;;;;;27.41;31.42;102459.53;5044329;28;20116;-44
2024/01/30 01:54:01;;;;;;;4.25;3.15;;;;;;;27.46;31.39;102465.03;5058199;28;20435;-43
2024/01/30 01:56:28;;;;;;;8.73;3.90;;;;;;;27.43;31.25;102454.50;5058110;28;20511;-43
2024/01/30 01:58:55;;;;;;;3.92;3.45;;;;;;;27.43;31.33;102460.06;5078603;28;20028;-44
2024/01/30 02:01:21;;;;;;;4.25;3.40;;;;;;;27.46;31.23;102454.72;5086788;28;20066;-46
2024/01/30 02:03:46;;;;;;;4.90;3.40;;;;;;;27.39;31.55;102457.03;5084078;28;20681;-45
2024/01/30 02:06:13;;;;;;;5.32;3.42;;;;;;;27.43;31.27;102448.94;5076315;28;20031;-44
2024/01/30 02:08:39;;;;;;;4.47;3.58;;;;;;;27.49;31.46;102450.50;5066411;28;20381;-40
2024/01/30 02:11:04;;;;;;;4.13;3.22;;;;;;;27.38;31.16;102450.66;5079156;28;20047;-40
2024/01/30 02:13:30;;;;;;;4.88;3.50;;;;;;;27.51;31.40;102446.28;5084927;28;20460;-42
2024/01/30 02:15:55;;;;;;;4.63;3.45;;;;;;;27.45;31.43;102452.25;5086232;28;20055;-44
2024/01/30 02:18:23;;;;;;;4.85;3.35;;;;;;;27.41;31.27;102440.88;5086182;28;20013;-43
2024/01/30 02:20:51;;;;;;;7.25;3.55;;;;;;;27.34;31.39;102441.22;5084051;28;20036;-45
2024/01/30 02:23:16;;;;;;;3.83;3.42;;;;;;;27.33;31.72;102436.81;5078232;28;20072;-42
2024/01/30 02:25:44;;;;;;;4.90;3.40;;;;;;;27.32;31.61;102445.44;5079234;28;20450;-44
2024/01/30 02:28:13;;;;;;;5.03;3.47;;;;;;;27.32;31.52;102440.72;5085030;28;20032;-42
2024/01/30 02:30:39;;;;;;;4.60;3.33;;;;;;;27.31;31.25;102444.63;5088418;28;20027;-42
2024/01/30 02:33:04;;;;;;;4.70;3.40;;;;;;;27.22;31.74;102444.50;5086228;28;20392;-41
2024/01/30 02:35:30;;;;;;;4.28;3.38;;;;;;;27.29;31.62;102441.31;5085602;28;20396;-40
2024/01/30 02:37:55;;;;;;;6.22;3.40;;;;;;;27.25;31.42;102440.28;5081777;28;20035;-42
2024/01/30 02:40:21;;;;;;;7.78;3.75;;;;;;;27.27;31.61;102442.75;5082439;28;20032;-41
2024/01/30 02:42:46;;;;;;;4.13;3.22;;;;;;;27.29;31.49;102443.28;5084557;28;20031;-41
2024/01/30 02:45:12;;;;;;;6.15;3.10;;;;;;;27.31;31.53;102435.44;5078943;28;20020;-43
2024/01/30 02:47:38;;;;;;;4.80;3.67;;;;;;;27.39;31.62;102431.97;5058100;28;20118;-40
2024/01/30 02:50:04;;;;;;;4.28;3.15;;;;;;;27.26;31.62;102425.25;5086705;28;20028;-42
2024/01/30 02:52:29;;;;;;;4.68;3.55;;;;;;;27.22;31.52;102407.47;5083195;28;20561;-40
2024/01/30 02:54:55;;;;;;;5.28;3.30;;;;;;;27.30;31.69;102414.31;5085389;28;20471;-40
2024/01/30 02:57:20;;;;;;;3.47;3.15;;;;;;;27.08;31.89;102407.41;5076908;28;20073;-44
2024/01/30 02:59:45;;;;;;;4.72;3.85;;;;;;;27.14;31.77;102411.78;5071712;28;20467;-43
2024/01/30 03:02:11;;;;;;;3.45;2.95;;;;;;;27.30;31.73;102408.75;5078351;28;20251;-42
2024/01/30 03:04:36;;;;;;;5.60;3.47;;;;;;;27.42;31.64;102408.28;5079690;28;20040;-42
2024/01/30 03:07:02;;;;;;;4.50;3.20;;;;;;;27.50;31.34;102410.38;5059343;28;20773;-41
2024/01/30 03:09:27;;;;;;;4.68;3.50;;;;;;;27.43;31.33;102410.78;5077859;28;20406;-41
2024/01/30 03:11:52;;;;;;;4.03;3.30;;;;;;;27.35;31.63;102409.47;5058358;28;20017;-41
2024/01/30 03:14:18;;;;;;;4.00;3.40;;;;;;;27.36;31.63;102402.78;5086978;28;20615;-41
2024/01/30 03:16:43;;;;;;;4.97;3.40;;;;;;;27.40;31.48;102408.56;5086102;28;20024;-42
2024/01/30 03:19:09;;;;;;;4.65;3.28;;;;;;;27.30;31.55;102408.75;5079181;28;20025;-43
2024/01/30 03:21:34;;;;;;;4.63;3.95;;;;;;;27.25;31.48;102404.09;5077370;28;20448;-42
2024/01/30 03:24:00;;;;;;;5.03;3.30;;;;;;;27.19;31.83;102406.13;5086763;28;20035;-43
2024/01/30 03:26:25;;;;;;;3.53;3.00;;;;;;;27.25;31.71;102415.22;5084102;28;20518;-41
2024/01/30 03:28:51;;;;;;;6.05;2.92;;;;;;;27.15;31.70;102410.66;5083253;28;20036;-41
2024/01/30 03:31:16;;;;;;;4.05;3.58;;;;;;;27.17;31.73;102410.34;5061657;28;20017;-42
2024/01/30 03:33:41;;;;;;;4.68;3.22;;;;;;;27.12;31.73;102414.03;5068558;28;20028;-43
2024/01/30 03:36:08;;;;;;;3.60;2.92;;;;;;;27.09;31.78;102409.09;5076779;28;20477;-41
2024/01/30 03:38:33;;;;;;;5.80;3.05;;;;;;;27.11;32.04;102415.16;5082666;28;20423;-40
2024/01/30 03:40:59;;;;;;;4.78;3.30;;;;;;;27.07;32.04;102408.53;5076625;28;20028;-43
2024/01/30 03:43:25;;;;;;;5.10;3.20;;;;;;;27.10;32.06;102402.41;5073852;28;20047;-42
2024/01/30 03:45:50;;;;;;;4.45;3.25;;;;;;;27.06;32.24;102404.09;5075158;28;20036;-43
2024/01/30 03:48:15;;;;;;;8.70;3.15;;;;;;;27.08;31.89;102404.63;5057105;28;20073;-40
2024/01/30 03:50:41;;;;;;;4.32;3.22;;;;;;;27.08;31.80;102399.06;5085858;28;20126;-42
2024/01/30 03:53:06;;;;;;;3.20;2.90;;;;;;;27.05;31.85;102396.88;5082108;28;20019;-40
2024/01/30 03:55:31;;;;;;;3.38;3.08;;;;;;;27.06;32.24;102401.31;5082439;28;20530;-43
2024/01/30 03:57:57;;;;;;;4.15;2.85;;;;;;;27.05;31.73;102403.28;5046948;28;20174;-43
2024/01/30 04:00:22;;;;;;;3.55;2.85;;;;;;;27.08;32.00;102401.84;5081066;28;20024;-47
2024/01/30 04:02:47;;;;;;;3.25;2.95;;;;;;;27.02;32.02;102405.84;5080284;28;20052;-44
2024/01/30 04:05:13;;;;;;;3.45;2.90;;;;;;;26.94;32.36;102400.97;5076129;28;20070;-44
2024/01/30 04:07:38;;;;;;;6.20;3.22;;;;;;;26.97;32.24;102400.38;5084904;28;20032;-43
2024/01/30 04:10:05;;;;;;;4.47;3.35;;;;;;;26.97;31.99;102403.97;5085961;28;20384;-44
2024/01/30 04:12:31;;;;;;;4.43;2.90;;;;;;;26.92;32.12;102401.28;5078849;28;20541;-47
2024/01/30 04:14:57;;;;;;;4.00;2.90;;;;;;;26.93;32.20;102400.16;5084622;28;20024;-42
2024/01/30 04:17:22;;;;;;;4.03;3.03;;;;;;;26.87;32.35;102404.94;5079295;28;20035;-42
2024/01/30 04:19:47;;;;;;;5.68;4.10;;;;;;;26.91;32.25;102396.81;5081725;28;20055;-42
2024/01/30 04:22:13;;;;;;;6.05;3.30;;;;;;;26.92;32.27;102387.38;5083094;28;20028;-44
2024/01/30 04:24:38;;;;;;;3.58;3.10;;;;;;;26.94;32.14;102385.13;5074858;28;20032;-40
2024/01/30 04:27:04;;;;;;;3.42;3.13;;;;;;;26.92;32.27;102384.59;5062194;28;20787;-41
2024/01/30 04:29:29;;;;;;;4.88;3.05;;;;;;;26.87;32.36;102382.69;5080830;28;20506;-44
2024/01/30 04:31:54;;;;;;;4.57;3.10;;;;;;;26.89;32.35;102374.88;5069159;28;20024;-44
2024/01/30 04:34:20;;;;;;;4.32;3.05;;;;;;;26.88;32.21;102372.41;5071054;28;20055;-41
2024/01/30 04:36:46;;;;;;;3.35;2.90;;;;;;;26.87;32.54;102373.53;5069603;28;20031;-43
2024/01/30 04:39:12;;;;;;;6.00;3.20;;;;;;;26.85;32.26;102370.22;5085163;28;20302;-41
2024/01/30 04:41:37;;;;;;;4.72;3.20;;;;;;;26.87;32.22;102363.22;5085981;28;20262;-41
2024/01/30 04:44:03;;;;;;;3.33;3.00;;;;;;;26.98;32.10;102377.81;5080932;28;20031;-41
2024/01/30 04:46:28;;;;;;;3.72;2.97;;;;;;;27.01;32.03;102363.28;5083963;28;20536;-44
2024/01/30 04:48:54;;;;;;;3.50;2.85;;;;;;;27.10;32.08;102359.81;5077637;28;20066;-43
2024/01/30 04:51:19;;;;;;;3.95;2.65;;;;;;;27.16;32.05;102364.16;5084778;28;20472;-45
2024/01/30 04:53:44;;;;;;;4.18;3.03;;;;;;;27.19;31.87;102360.78;5069774;28;20035;-43
2024/01/30 04:56:10;;;;;;;3.80;3.10;;;;;;;27.16;32.11;102364.16;5074893;28;20051;-40
2024/01/30 04:58:35;;;;;;;3.83;3.05;;;;;;;27.12;32.05;102369.50;5075044;28;20016;-41
2024/01/30 05:01:02;;;;;;;3.55;2.80;;;;;;;27.10;32.19;102373.72;5074802;28;20512;-43
2024/01/30 05:03:27;;;;;;;4.28;2.90;;;;;;;27.02;32.02;102372.47;5085584;28;20023;-43
2024/01/30 05:05:52;;;;;;;3.38;3.00;;;;;;;26.94;32.01;102375.94;5079195;28;20027;-43
2024/01/30 05:08:18;;;;;;;4.32;3.08;;;;;;;26.95;32.32;102375.63;5070645;28;20028;-43
2024/01/30 05:10:43;;;;;;;4.78;3.20;;;;;;;27.11;31.92;102370.63;5075818;28;20024;-43
2024/01/30 05:13:08;;;;;;;3.63;2.83;;;;;;;27.02;32.05;102373.28;5072957;28;20441;-41
2024/01/30 05:15:34;;;;;;;3.30;2.83;;;;;;;26.93;32.08;102372.31;5082594;28;20169;-41
2024/01/30 05:17:59;;;;;;;4.35;3.45;;;;;;;26.91;32.09;102369.81;5073592;28;20048;-40
2024/01/30 05:20:27;;;;;;;5.75;3.00;;;;;;;26.80;32.50;102365.56;5083507;28;20069;-41
2024/01/30 05:22:53;;;;;;;5.25;3.05;;;;;;;26.82;32.23;102370.81;5077356;28;20527;-40
2024/01/30 05:25:18;;;;;;;4.25;2.92;;;;;;;26.77;32.33;102371.72;5074681;28;20036;-40
2024/01/30 05:27:44;;;;;;;3.00;2.40;;;;;;;27.02;32.31;102375.25;5062905;28;20429;-42
2024/01/30 05:30:10;;;;;;;4.05;3.10;;;;;;;27.21;31.96;102375.19;5081547;28;20027;-44
2024/01/30 05:32:35;;;;;;;3.97;2.80;;;;;;;27.37;32.02;102368.25;5060859;28;20487;-40
2024/01/30 05:35:01;;;;;;;3.97;2.85;;;;;;;27.42;31.90;102377.69;5075007;28;20067;-43
2024/01/30 05:37:26;;;;;;;3.25;2.95;;;;;;;27.51;31.73;102371.09;5077138;28;20337;-40
2024/01/30 05:39:51;;;;;;;5.07;3.08;;;;;;;27.54;31.67;102376.06;5082083;28;20024;-42
2024/01/30 05:42:17;;;;;;;3.50;2.83;;;;;;;27.73;31.60;102369.59;5084585;28;20024;-43
2024/01/30 05:44:42;;;;;;;8.07;2.78;;;;;;;27.74;31.65;102371.25;5075034;28;20371;-41
2024/01/30 05:47:08;;;;;;;3.10;2.80;;;;;;;27.69;31.81;102374.94;5065869;28;20327;-45
2024/01/30 05:49:33;;;;;;;3.20;2.85;;;;;;;27.66;32.19;102370.00;5049786;28;20032;-41
2024/01/30 05:51:58;;;;;;;4.63;2.60;;;;;;;27.69;31.89;102376.94;5077915;28;20488;-41
2024/01/30 05:54:24;;;;;;;3.08;2.70;;;;;;;27.75;31.94;102378.47;5082658;28;20036;-43
2024/01/30 05:56:49;;;;;;;3.50;2.92;;;;;;;27.72;31.86;102375.47;5083555;28;20576;-44
2024/01/30 05:59:15;;;;;;;3.53;2.80;;;;;;;27.76;31.82;102382.91;5083037;28;20239;-42
2024/01/30 06:01:47;;;;;;;3.88;2.97;;;;;;;27.79;31.84;102387.06;5082775;28;20313;-43
2024/01/30 06:04:13;;;;;;;3.90;3.00;;;;;;;27.90;31.93;102379.28;5079321;28;20019;-42
2024/01/30 06:06:39;;;;;;;5.35;2.92;;;;;;;27.89;31.67;102384.06;5083745;28;20039;-41
2024/01/30 06:09:05;;;;;;;3.65;2.75;;;;;;;27.95;31.67;102382.81;5083967;28;20411;-45
2024/01/30 06:11:30;;;;;;;2.90;2.70;;;;;;;27.95;31.66;102379.22;5081306;28;20396;-46
2024/01/30 06:13:56;;;;;;;3.25;2.80;;;;;;;28.02;31.37;102374.06;5081508;28;20500;-45
2024/01/30 06:16:22;;;;;;;4.93;2.80;;;;;;;27.93;31.63;102385.06;5085571;28;20436;-46
2024/01/30 06:18:48;;;;;;;4.32;2.67;;;;;;;27.88;31.65;102387.97;5087002;28;20093;-44
2024/01/30 06:21:13;;;;;;;3.67;2.90;;;;;;;27.91;31.70;102383.75;5087967;28;20472;-45
2024/01/30 06:23:38;;;;;;;4.47;2.85;;;;;;;27.78;32.09;102385.41;5083410;28;20055;-45
2024/01/30 06:26:06;;;;;;;4.90;2.92;;;;;;;27.60;31.96;102387.09;5087140;28;20043;-46
2024/01/30 06:28:31;;;;;;;5.18;2.83;;;;;;;27.52;32.38;102388.66;5083763;28;20020;-47
2024/01/30 06:30:57;;;;;;;3.75;2.97;;;;;;;27.41;32.38;102388.00;5083511;28;20613;-45
2024/01/30 06:33:22;;;;;;;4.15;3.40;;;;;;;27.34;32.23;102382.78;5085739;28;20032;-44
2024/01/30 06:35:47;;;;;;;4.82;3.00;;;;;;;27.33;32.38;102389.50;5088842;28;20028;-43
2024/01/30 06:38:15;;;;;;;3.47;3.00;;;;;;;27.33;32.33;102381.16;5077126;28;20024;-44
2024/01/30 06:40:40;;;;;;;5.38;3.30;;;;;;;27.35;32.47;102390.00;5086434;28;20032;-47
2024/01/30 06:43:07;;;;;;;4.82;2.90;;;;;;;27.35;32.28;102390.00;5083561;28;20028;-43
2024/01/30 06:45:34;;;;;;;4.07;3.10;;;;;;;27.35;32.45;102389.19;5082717;28;20502;-44
2024/01/30 06:47:59;;;;;;;4.72;3.40;;;;;;;27.32;32.58;102389.78;5084914;28;20035;-44
2024/01/30 06:50:25;;;;;;;3.45;3.00;;;;;;;27.25;32.35;102381.84;5077820;28;20035;-42
2024/01/30 06:52:50;;;;;;;6.25;3.20;;;;;;;27.23;32.31;102378.50;5080986;28;20016;-42
2024/01/30 06:55:16;;;;;;;4.50;3.22;;;;;;;27.17;32.40;102388.94;5085433;28;20498;-42
2024/01/30 06:57:41;;;;;;;5.15;3.22;;;;;;;27.19;32.30;102378.28;5063976;28;20448;-41
2024/01/30 07:00:07;;;;;;;4.28;3.20;;;;;;;27.15;32.51;102391.19;5084782;28;20496;-43
2024/01/30 07:02:32;;;;;;;4.03;3.10;;;;;;;27.25;32.58;102383.78;5063895;28;20049;-42
2024/01/30 07:04:58;;;;;;;4.90;3.17;;;;;;;27.22;32.64;102388.00;5087158;28;20103;-43
2024/01/30 07:07:23;;;;;;;6.00;3.10;;;;;;;27.21;32.60;102387.19;5079784;28;20059;-42
2024/01/30 07:09:52;;;;;;;4.22;3.30;;;;;;;27.32;32.47;102390.63;5081454;28;20419;-44
2024/01/30 07:12:17;;;;;;;3.97;3.20;;;;;;;27.38;32.13;102396.91;5087453;28;20416;-44
2024/01/30 07:14:43;;;;;;;4.53;2.90;;;;;;;27.27;32.27;102401.00;5069652;28;20081;-46
2024/01/30 07:17:08;;;;;;;7.38;3.47;;;;;;;27.36;32.24;102401.97;5080506;28;20028;-42
2024/01/30 07:19:34;;;;;;;4.47;3.20;;;;;;;27.32;32.34;102414.81;5081415;28;20633;-45
2024/01/30 07:22:00;;;;;;;4.30;3.75;;;;;;;27.32;32.29;102412.88;5077837;28;20036;-43
2024/01/30 07:24:26;;;;;;;5.10;3.30;;;;;;;27.22;32.46;102416.66;5081453;28;20085;-46
2024/01/30 07:26:51;;;;;;;4.90;3.65;;;;;;;27.11;32.50;102403.22;5080775;28;20025;-42
2024/01/30 07:29:17;;;;;;;5.20;3.13;;;;;;;27.09;32.69;102411.03;5084087;28;20401;-43
2024/01/30 07:31:42;;;;;;;3.70;3.20;;;;;;;27.15;32.59;102423.72;5057306;28;20107;-48
2024/01/30 07:34:07;;;;;;;3.60;2.85;;;;;;;27.14;32.71;102422.91;5069101;28;20028;-44
2024/01/30 07:36:33;;;;;;;4.78;3.20;;;;;;;27.14;32.46;102427.66;5083659;28;20111;-44
2024/01/30 07:38:58;;;;;;;4.72;3.08;;;;;;;27.11;32.53;102431.84;5080181;28;20028;-45
2024/01/30 07:41:25;;;;;;;4.25;3.03;;;;;;;27.08;32.49;102434.44;5070822;28;20067;-43
2024/01/30 07:43:50;;;;;;;4.82;3.05;;;;;;;27.12;32.69;102436.28;5078691;28;20439;-42
2024/01/30 07:46:15;;;;;;;4.50;3.20;;;;;;;27.12;32.43;102430.72;5080225;28;20024;-43
2024/01/30 07:48:41;;;;;;;5.60;3.05;;;;;;;27.14;32.56;102427.66;5069842;28;20028;-43
2024/01/30 07:51:06;;;;;;;3.83;2.88;;;;;;;27.13;32.60;102435.16;5085960;28;20116;-43
2024/01/30 07:53:32;;;;;;;4.47;3.20;;;;;;;27.13;32.63;102428.78;5072909;28;20028;-42
2024/01/30 07:55:57;;;;;;;5.63;3.30;;;;;;;27.12;32.97;102435.47;5073440;28;20343;-44
2024/01/30 07:58:23;;;;;;;5.25;3.28;;;;;;;27.11;32.97;102439.38;5084835;28;20020;-43
2024/01/30 08:00:49;;;;;;;5.78;3.63;;;;;;;27.14;33.06;102439.59;5082606;28;20039;-42
2024/01/30 08:03:16;;;;;;;6.78;3.60;;;;;;;27.05;33.20;102449.75;5076564;28;20032;-41
2024/01/30 08:05:41;;;;;;;5.63;3.42;;;;;;;26.98;33.27;102452.91;5074250;28;20477;-45
2024/01/30 08:08:07;;;;;;;35.15;5.55;;;;;;;27.24;33.05;102452.53;5073540;28;20027;-42
2024/01/30 08:10:32;;;;;;;22.80;3.60;;;;;;;27.31;33.25;102458.56;5079447;28;20020;-43
2024/01/30 08:12:58;;;;;;;17.55;3.88;;;;;;;27.32;33.62;102454.63;5082764;28;20055;-41
2024/01/30 08:15:23;;;;;;;15.43;3.63;;;;;;;27.16;33.70;102465.19;5065903;28;20032;-41
2024/01/30 08:17:49;;;;;;;367.52;26.52;;;;;;;27.18;34.01;102460.13;5077640;28;20070;-41
2024/01/30 08:20:14;;;;;;;10.48;3.85;;;;;;;27.34;33.65;102469.06;5074024;28;20028;-44
2024/01/30 08:22:40;;;;;;;13.48;4.90;;;;;;;27.46;33.70;102462.25;5085661;28;20078;-41
2024/01/30 08:25:06;;;;;;;13.27;3.58;;;;;;;27.51;33.36;102473.31;5071329;28;20038;-42
2024/01/30 08:27:31;;;;;;;9.02;3.30;;;;;;;27.43;33.57;102477.59;5066964;28;20024;-41
2024/01/30 08:29:57;;;;;;;8.10;3.15;;;;;;;27.43;33.70;102472.03;5081802;28;20033;-41
2024/01/30 08:32:23;;;;;;;9.50;3.50;;;;;;;27.45;33.52;102466.97;5077321;28;20023;-41
2024/01/30 08:34:49;;;;;;;62.85;5.82;;;;;;;27.48;33.87;102474.72;5063911;28;20472;-42
2024/01/30 08:37:16;;;;;;;11.10;3.85;;;;;;;27.48;34.11;102468.31;5084292;28;20127;-41
2024/01/30 08:39:42;;;;;;;20.90;3.85;;;;;;;27.57;33.62;102468.47;5081014;28;20085;-42
2024/01/30 08:42:07;;;;;;;16.80;5.03;;;;;;;27.57;33.77;102477.66;5086775;28;20028;-40
2024/01/30 08:44:33;;;;;;;11.02;4.00;;;;;;;27.54;33.75;102472.69;5082956;28;20040;-39
2024/01/30 08:46:58;;;;;;;12.15;4.72;;;;;;;27.49;33.69;102469.97;5082034;28;20052;-40
2024/01/30 08:49:24;;;;;;;10.95;4.25;;;;;;;27.44;33.69;102467.28;5062657;28;21101;-40
2024/01/30 08:51:50;;;;;;;7.00;3.70;;;;;;;27.42;33.76;102459.25;5083006;28;20024;-39
2024/01/30 08:54:15;;;;;;;9.65;3.55;;;;;;;27.42;33.82;102467.59;5082325;28;20020;-40
2024/01/30 08:56:41;;;;;;;11.77;4.10;;;;;;;27.44;33.53;102470.88;5080948;28;20511;-40
2024/01/30 08:59:06;;;;;;;9.93;3.55;;;;;;;27.42;33.61;102469.53;5077128;28;20032;-40
2024/01/30 09:01:31;;;;;;;8.40;4.18;;;;;;;27.37;33.75;102471.25;5081979;28;20125;-41
2024/01/30 09:03:57;;;;;;;5.18;3.55;;;;;;;27.30;33.89;102478.34;5083718;28;20043;-40
2024/01/30 09:06:23;;;;;;;10.20;4.30;;;;;;;27.39;33.78;102482.94;5082636;28;20044;-40
2024/01/30 09:08:49;;;;;;;10.85;4.30;;;;;;;27.45;33.50;102499.56;5083209;28;20418;-43
2024/01/30 09:11:15;;;;;;;8.98;4.32;;;;;;;27.48;33.56;102498.94;5062486;28;20031;-41
2024/01/30 09:13:41;;;;;;;6.72;3.70;;;;;;;27.37;33.54;102501.06;5077632;28;20039;-41
2024/01/30 09:16:07;;;;;;;66.97;6.72;;;;;;;27.53;33.60;102502.50;5064790;28;20081;-44
2024/01/30 09:18:33;;;;;;;22.98;4.38;;;;;;;27.71;33.60;102505.53;5081920;28;20024;-43
2024/01/30 09:20:58;;;;;;;13.70;4.22;;;;;;;27.78;33.90;102496.81;5083709;28;20034;-44
2024/01/30 09:23:24;;;;;;;9.88;3.95;;;;;;;27.82;33.76;102509.81;5082042;28;20418;-44
2024/01/30 09:25:50;;;;;;;17.90;3.92;;;;;;;27.83;33.51;102517.03;5078286;28;20043;-42
2024/01/30 09:28:17;;;;;;;10.93;3.42;;;;;;;27.90;33.43;102513.03;5076366;28;20066;-43
2024/01/30 09:30:42;;;;;;;8.07;3.40;;;;;;;27.88;33.69;102524.47;5081973;28;20321;-39
2024/01/30 09:33:07;;;;;;;8.10;3.45;;;;;;;28.08;33.28;102514.97;5081989;28;20028;-43
2024/01/30 09:35:33;;;;;;;14.68;3.67;;;;;;;28.37;32.90;102515.84;5073240;28;20047;-42
2024/01/30 09:37:59;;;;;;;13.25;3.55;;;;;;;28.20;33.23;102513.66;5070201;28;20056;-45
2024/01/30 09:40:24;;;;;;;7.50;3.17;;;;;;;28.06;33.09;102538.72;5077341;28;20054;-43
2024/01/30 09:42:51;;;;;;;15.32;3.95;;;;;;;28.05;33.21;102559.34;5084728;28;21322;-42
2024/01/30 09:45:18;;;;;;;6.55;3.28;;;;;;;28.03;33.02;102568.81;5083599;28;20424;-38
2024/01/30 09:47:44;;;;;;;8.95;3.88;;;;;;;28.03;32.88;102563.22;5083987;28;20024;-41
2024/01/30 09:50:14;;;;;;;11.48;3.17;;;;;;;28.00;33.53;102560.22;5064177;28;20031;-46
2024/01/30 09:52:40;;;;;;;10.25;3.15;;;;;;;27.94;33.60;102567.00;5068652;28;20032;-44
2024/01/30 09:55:06;;;;;;;6.88;3.50;;;;;;;27.89;33.27;102575.47;5062991;28;20052;-42
2024/01/30 09:57:32;;;;;;;8.07;2.78;;;;;;;27.89;33.58;102558.75;5087890;28;20243;-40
2024/01/30 09:59:57;;;;;;;5.60;2.40;;;;;;;27.90;33.41;102569.59;5087579;28;20028;-43
2024/01/30 10:02:23;;;;;;;70.88;6.95;;;;;;;27.83;33.49;102569.13;5087323;28;20031;-41
2024/01/30 10:04:52;;;;;;;34.03;3.58;;;;;;;28.32;32.87;102559.38;5082094;28;20021;-48
2024/01/30 10:07:18;;;;;;;11.07;2.47;;;;;;;28.26;32.96;102580.13;5080206;28;20500;-45
2024/01/30 10:09:44;;;;;;;4.78;2.78;;;;;;;28.00;33.31;102566.59;5081339;28;20043;-45
2024/01/30 10:12:10;;;;;;;9.32;2.40;;;;;;;28.07;32.80;102557.06;5086874;28;20032;-45
2024/01/30 10:14:42;;;;;;;14.88;4.10;;;;;;;27.90;33.37;102569.59;5076848;28;20077;-45
2024/01/30 10:17:09;;;;;;;5.68;2.53;;;;;;;27.80;33.31;102562.22;5087642;28;20020;-46
2024/01/30 10:19:34;;;;;;;5.38;2.42;;;;;;;27.72;33.18;102571.25;5069794;28;20028;-46
2024/01/30 10:22:00;;;;;;;9.00;2.30;;;;;;;27.65;33.43;102563.28;5070144;28;20040;-46
2024/01/30 10:24:29;;;;;;;8.18;2.30;;;;;;;27.49;33.27;102573.84;5055320;28;20064;-47
2024/01/30 10:26:55;;;;;;;5.15;1.92;;;;;;;27.44;33.47;102582.25;5064787;28;20203;-46
2024/01/30 10:29:20;;;;;;;6.13;2.50;;;;;;;27.37;33.62;102577.03;5079622;28;20111;-45
2024/01/30 10:31:47;;;;;;;8.63;2.08;;;;;;;27.29;33.65;102577.69;5083238;28;20027;-46
2024/01/30 10:34:12;;;;;;;4.95;2.30;;;;;;;27.28;33.56;102583.56;5048465;28;20561;-46
2024/01/30 10:36:43;;;;;;;4.65;2.03;;;;;;;27.24;33.58;102580.56;5064011;28;20103;-44
2024/01/30 10:39:08;;;;;;;4.07;1.85;;;;;;;27.21;33.45;102586.72;5073244;28;20329;-46
2024/01/30 10:41:43;;;;;;;5.03;1.90;;;;;;;27.17;33.62;102589.28;5082398;28;20202;-47
2024/01/30 10:44:09;;;;;;;4.88;2.00;;;;;;;27.15;33.46;102583.19;5080503;28;20056;-45
2024/01/30 10:46:35;;;;;;;6.28;1.70;;;;;;;27.16;33.68;102586.78;5081770;28;20483;-45
2024/01/30 10:49:01;;;;;;;5.35;1.77;;;;;;;27.16;33.51;102581.22;5066214;28;20036;-47
2024/01/30 10:51:28;;;;;;;4.15;1.58;;;;;;;27.04;33.38;102582.47;5081021;28;20024;-44
2024/01/30 10:53:53;;;;;;;4.88;1.70;;;;;;;27.09;33.72;102589.94;5085487;28;20396;-45
2024/01/30 10:56:23;;;;;;;4.53;1.70;;;;;;;27.01;33.67;102602.53;5083087;28;20030;-47
2024/01/30 10:58:52;;;;;;;3.80;1.60;;;;;;;26.98;33.55;102580.88;5080495;28;20032;-44
2024/01/30 11:01:22;;;;;;;3.40;1.85;;;;;;;26.96;33.80;102602.59;5065178;28;20040;-45
2024/01/30 11:03:50;;;;;;;5.45;1.80;;;;;;;26.88;33.81;102606.06;5067546;28;20120;-46
2024/01/30 11:06:18;;;;;;;8.93;1.85;;;;;;;26.85;33.91;102599.09;5072054;28;20086;-46
2024/01/30 11:08:46;;;;;;;5.82;2.00;;;;;;;26.83;33.71;102606.94;5063980;28;20564;-44
2024/01/30 11:11:12;;;;;;;4.25;1.80;;;;;;;26.81;33.86;102609.19;5061803;28;20032;-45
2024/01/30 11:13:38;;;;;;;4.82;1.70;;;;;;;26.83;33.82;102606.09;5084713;28;20042;-45
2024/01/30 11:16:04;;;;;;;6.60;1.88;;;;;;;26.83;33.79;102606.94;5081772;28;20473;-47
2024/01/30 11:18:31;;;;;;;3.47;1.50;;;;;;;26.76;34.03;102609.25;5084911;28;20521;-49